Time;durP1;ratioP1;P1;durP2;ratioP2;P2;SDS_P1;SDS_P2;PMS_P1;PMS_P2;Temp;Humidity;BMP_temperature;BMP_pressure;BME280_temperature;BME280_humidity;BME280_pressure;Samples;Min_cycle;Max_cycle;Signal;HPM_P1;HPM_P2
2022/10/21 00:02:25;;;;;;;10.50;9.47;;;12.00;85.40;;;11.92;73.94;97830.63;5122055;28;20482;-82
2022/10/21 00:04:52;;;;;;;9.27;8.33;;;12.00;85.80;;;11.94;73.90;97840.16;5117336;28;20890;-81
2022/10/21 00:07:19;;;;;;;10.27;9.27;;;12.00;85.80;;;11.71;74.46;97825.47;5122027;28;20456;-82
2022/10/21 00:09:48;;;;;;;9.63;8.63;;;11.90;85.70;;;11.92;74.30;97844.16;5114286;28;20452;-83
2022/10/21 00:12:16;;;;;;;10.37;9.27;;;11.80;85.80;;;11.43;75.08;97801.63;5124753;28;20472;-83
2022/10/21 00:14:43;;;;;;;9.93;8.93;;;11.70;86.20;;;11.73;75.44;97847.69;5135793;27;20541;-83
2022/10/21 00:17:10;;;;;;;9.97;8.97;;;11.70;86.50;;;11.61;75.46;97839.53;5121319;28;20452;-81
2022/10/21 00:19:38;;;;;;;10.83;9.67;;;11.60;86.60;;;11.55;75.82;97828.78;5118461;27;20480;-82
2022/10/21 00:22:05;;;;;;;11.23;9.10;;;11.60;87.20;;;11.60;75.99;97839.75;5123983;28;20512;-82
2022/10/21 00:24:33;;;;;;;10.33;9.37;;;11.50;87.50;;;11.61;75.96;97844.94;5119263;28;20462;-83
2022/10/21 00:27:02;;;;;;;10.30;9.27;;;11.50;87.80;;;11.52;76.49;97830.06;5125220;27;20464;-81
2022/10/21 00:29:31;;;;;;;10.87;9.60;;;11.40;88.20;;;11.46;77.09;97847.19;5134243;27;21018;-83
2022/10/21 00:31:59;;;;;;;10.73;9.63;;;11.40;88.40;;;11.48;76.41;97851.31;5125750;27;20457;-85
2022/10/21 00:34:27;;;;;;;13.00;9.50;;;11.40;88.90;;;11.35;77.32;97837.94;5117903;28;20453;-84
2022/10/21 00:36:54;;;;;;;11.30;10.20;;;11.40;89.10;;;11.34;77.44;97818.19;5136890;27;20457;-82
2022/10/21 00:39:21;;;;;;;11.77;10.67;;;11.40;89.60;;;11.29;77.68;97830.72;5121023;28;20468;-82
2022/10/21 00:41:48;;;;;;;10.00;9.03;;;11.40;89.30;;;11.37;77.42;97811.47;5126501;27;20456;-83
2022/10/21 00:44:18;;;;;;;11.00;10.10;;;11.40;89.40;;;11.33;77.92;97803.00;5123729;27;20540;-84
2022/10/21 00:46:50;;;;;;;11.07;9.93;;;11.30;89.70;;;11.27;77.89;97813.91;5128183;27;20468;-84
2022/10/21 00:49:22;;;;;;;11.43;10.13;;;11.30;90.00;;;11.10;78.28;97805.53;5160336;27;20446;-82
2022/10/21 00:51:56;;;;;;;13.27;11.00;;;11.10;90.50;;;11.21;78.10;97829.16;5150610;27;20465;-84
2022/10/21 00:54:25;;;;;;;11.30;10.20;;;11.10;90.80;;;11.26;78.50;97832.00;5144280;27;21023;-84
2022/10/21 00:56:55;;;;;;;11.80;10.60;;;11.00;91.10;;;11.24;78.96;97836.81;5131996;27;20518;-84
2022/10/21 00:59:27;;;;;;;12.07;10.80;;;11.00;91.50;;;11.39;78.62;97824.78;5126696;27;20470;-83
2022/10/21 01:01:54;;;;;;;17.07;10.70;;;11.10;91.90;;;11.33;78.52;97819.25;5128795;27;20454;-83
2022/10/21 01:04:22;;;;;;;11.60;10.50;;;11.10;91.60;;;11.09;78.78;97766.03;5139096;27;20472;-82
2022/10/21 01:06:50;;;;;;;13.77;10.47;;;11.20;91.60;;;11.18;79.34;97786.34;5129556;27;20460;-85
2022/10/21 01:09:19;;;;;;;12.83;10.40;;;11.20;91.90;;;10.99;79.63;97767.38;5124956;27;20479;-85
2022/10/21 01:11:48;;;;;;;12.13;10.93;;;11.10;91.90;;;11.19;79.58;97791.50;5126058;27;20512;-84
2022/10/21 01:14:34;;;;;;;12.50;10.23;;;11.10;92.20;;;11.07;80.12;97795.19;5124617;27;20445;-85
2022/10/21 01:17:15;;;;;;;12.93;11.57;;;11.00;92.70;;;11.08;80.71;97786.88;5143114;27;20482;-83
2022/10/21 01:20:24;;;;;;;11.70;10.27;;;11.00;92.90;;;11.03;80.65;97779.41;5127255;27;20483;-83
2022/10/21 01:23:14;;;;;;;11.10;10.00;;;10.90;93.30;;;11.02;81.30;97783.19;5131120;27;20487;-84
2022/10/21 01:26:13;;;;;;;11.00;9.10;;;10.90;93.80;;;10.95;81.65;97782.41;5126997;27;20537;-84
2022/10/21 01:28:59;;;;;;;16.80;10.77;;;10.80;94.00;;;10.94;82.22;97769.94;5125280;27;21053;-82
2022/10/21 01:31:32;;;;;;;13.60;11.00;;;10.80;95.00;;;10.79;82.03;97737.03;5127248;27;20463;-82
2022/10/21 01:34:06;;;;;;;11.93;10.73;;;10.80;94.90;;;10.88;82.25;97765.44;5131605;27;20758;-83
2022/10/21 01:36:41;;;;;;;13.83;11.13;;;10.70;95.10;;;10.86;83.16;97773.75;5126485;27;20464;-83
2022/10/21 01:39:19;;;;;;;11.70;10.07;;;10.70;96.10;;;10.77;83.26;97781.31;5126977;27;20509;-82
2022/10/21 01:41:53;;;;;;;12.17;10.97;;;10.70;96.40;;;10.68;84.56;97771.84;5125092;27;20526;-82
2022/10/21 01:44:27;;;;;;;12.17;10.90;;;10.70;96.50;;;10.60;84.63;97766.75;5126035;27;20455;-81
2022/10/21 01:46:59;;;;;;;12.60;11.00;;;10.70;97.10;;;10.65;84.54;97775.00;5129603;27;20552;-82
2022/10/21 01:49:32;;;;;;;12.97;11.67;;;10.70;96.90;;;10.60;84.42;97758.63;5130168;27;20465;-83
2022/10/21 01:52:02;;;;;;;14.40;12.53;;;10.70;97.10;;;10.72;84.36;97762.25;5142341;27;20453;-83
2022/10/21 01:54:34;;;;;;;13.67;11.63;;;10.60;97.00;;;10.64;84.93;97746.31;5125804;27;20833;-82
2022/10/21 01:57:03;;;;;;;12.10;11.00;;;10.60;97.20;;;10.49;84.70;97720.50;5143063;27;20450;-82
2022/10/21 01:59:32;;;;;;;11.73;10.63;;;10.60;97.00;;;10.52;84.70;97723.78;5125037;27;21317;-82
2022/10/21 02:02:04;;;;;;;13.43;11.93;;;10.60;97.30;;;10.54;85.80;97748.69;5124928;27;20460;-81
2022/10/21 02:04:34;;;;;;;13.10;10.70;;;10.60;97.40;;;10.71;84.64;97757.91;5117641;27;21352;-82
2022/10/21 02:07:02;;;;;;;11.77;10.67;;;10.60;97.50;;;10.74;84.39;97768.28;5119363;27;20494;-82
2022/10/21 02:09:30;;;;;;;15.03;11.63;;;10.60;97.20;;;10.70;84.93;97769.78;5125970;27;22644;-82
2022/10/21 02:12:02;;;;;;;13.97;11.50;;;10.70;97.50;;;10.83;84.31;97774.22;5122376;27;20856;-83
2022/10/21 02:14:33;;;;;;;12.77;11.47;;;10.70;97.30;;;10.77;84.08;97767.81;5117723;27;20490;-84
2022/10/21 02:17:03;;;;;;;12.70;11.33;;;10.80;96.90;;;10.44;84.07;97714.94;5117979;27;20447;-84
2022/10/21 02:19:31;;;;;;;14.30;12.47;;;10.80;96.30;;;10.89;83.71;97769.78;5124189;27;20454;-83
2022/10/21 02:22:02;;;;;;;12.47;11.17;;;10.90;95.70;;;10.86;83.48;97752.13;5123552;27;20461;-81
2022/10/21 02:24:36;;;;;;;12.93;11.57;;;10.90;95.10;;;10.76;83.57;97744.53;5139715;27;20449;-83
2022/10/21 02:27:04;;;;;;;13.20;11.90;;;10.90;94.60;;;10.85;83.12;97738.88;5122802;27;20458;-83
2022/10/21 02:29:36;;;;;;;16.83;12.37;;;11.00;94.30;;;10.75;83.11;97715.03;5133928;27;20915;-83
2022/10/21 02:32:16;;;;;;;15.30;12.27;;;11.00;94.20;;;10.96;82.57;97756.22;5121674;27;20449;-84
2022/10/21 02:35:02;;;;;;;13.27;11.87;;;11.00;93.80;;;11.03;81.62;97763.19;5120436;27;20461;-83
2022/10/21 02:37:36;;;;;;;14.03;12.70;;;11.00;93.70;;;10.92;82.18;97755.81;5125619;27;20479;-83
2022/10/21 02:40:09;;;;;;;16.53;12.00;;;11.00;93.80;;;11.00;81.77;97747.44;5124473;27;20465;-82
2022/10/21 02:42:43;;;;;;;14.73;11.67;;;11.00;93.70;;;10.96;82.03;97750.81;5121804;27;20516;-82
2022/10/21 02:45:11;;;;;;;14.60;11.20;;;11.00;93.70;;;10.82;82.46;97717.66;5115150;27;20456;-81
2022/10/21 02:47:42;;;;;;;13.17;11.77;;;11.00;93.50;;;10.94;82.22;97737.50;5118382;27;20531;-83
2022/10/21 02:50:09;;;;;;;18.03;11.60;;;11.00;93.40;;;10.60;82.13;97683.81;5124558;27;20447;-82
2022/10/21 02:52:37;;;;;;;16.17;12.20;;;11.00;93.60;;;10.79;81.67;97691.94;5126533;27;20452;-82
2022/10/21 02:55:05;;;;;;;14.73;13.23;;;10.90;93.70;;;10.79;82.30;97713.56;5132311;27;20472;-82
2022/10/21 02:57:32;;;;;;;15.10;11.63;;;10.90;93.60;;;10.79;82.33;97735.19;5115366;27;20473;-81
2022/10/21 03:00:00;;;;;;;13.87;12.47;;;10.80;94.00;;;10.79;82.90;97726.22;5110462;27;20469;-81
2022/10/21 03:02:27;;;;;;;13.27;11.93;;;10.80;94.10;;;10.81;82.58;97710.63;5119359;27;20473;-83
2022/10/21 03:04:55;;;;;;;17.70;11.90;;;10.80;94.20;;;10.77;83.14;97719.19;5121098;27;20467;-82
2022/10/21 03:07:23;;;;;;;12.73;11.40;;;10.80;94.20;;;10.10;82.63;97614.50;5145896;27;20455;-81
2022/10/21 03:09:50;;;;;;;13.33;11.90;;;10.80;94.40;;;10.86;82.93;97721.59;5153296;27;20454;-81
2022/10/21 03:12:19;;;;;;;13.60;12.17;;;10.80;94.50;;;10.79;82.58;97712.72;5141784;27;20452;-81
2022/10/21 03:14:46;;;;;;;14.17;12.00;;;10.80;94.60;;;10.82;82.60;97712.25;5128372;27;20464;-82
2022/10/21 03:17:13;;;;;;;14.43;11.97;;;10.80;94.50;;;10.86;82.54;97705.38;5118710;27;20460;-81
2022/10/21 03:19:41;;;;;;;14.63;11.37;;;10.80;94.30;;;10.60;82.70;97672.19;5115199;27;20472;-81
2022/10/21 03:22:09;;;;;;;16.73;12.80;;;10.80;94.80;;;10.73;82.05;97655.00;5128248;27;21113;-81
2022/10/21 03:24:37;;;;;;;14.77;13.20;;;10.80;94.50;;;10.93;82.07;97680.97;5117055;27;20498;-81
2022/10/21 03:27:04;;;;;;;14.50;13.00;;;10.80;94.20;;;10.67;82.28;97640.50;5117978;27;21164;-82
2022/10/21 03:29:31;;;;;;;12.97;11.67;;;10.90;94.10;;;10.89;82.06;97678.72;5123706;27;21028;-82
2022/10/21 03:31:58;;;;;;;14.83;13.43;;;10.90;93.90;;;10.89;82.44;97672.50;5122089;27;20465;-82
2022/10/21 03:34:26;;;;;;;12.57;11.27;;;10.90;93.80;;;9.84;81.84;97500.34;5138043;27;20449;-83
2022/10/21 03:36:53;;;;;;;15.23;12.93;;;11.00;93.80;;;10.95;82.59;97679.69;5122778;27;20449;-82
2022/10/21 03:39:22;;;;;;;15.27;12.27;;;11.00;94.00;;;10.98;81.96;97679.22;5117020;27;20445;-82
2022/10/21 03:41:49;;;;;;;17.77;12.60;;;11.00;93.70;;;11.10;81.59;97675.78;5122859;27;21654;-82
2022/10/21 03:44:16;;;;;;;14.87;12.00;;;11.00;93.60;;;11.02;81.66;97679.59;5120604;27;20465;-81
2022/10/21 03:46:43;;;;;;;14.67;12.00;;;11.00;93.80;;;10.74;82.40;97635.88;5122045;27;20951;-83
2022/10/21 03:49:11;;;;;;;13.40;12.20;;;11.00;93.80;;;10.88;82.21;97662.75;5117877;27;20521;-82
2022/10/21 03:51:38;;;;;;;16.47;11.67;;;10.90;94.20;;;10.86;82.58;97651.34;5122570;27;20457;-83
2022/10/21 03:54:06;;;;;;;13.33;11.90;;;10.90;94.20;;;10.90;83.46;97655.22;5118349;28;20477;-82
2022/10/21 03:56:35;;;;;;;13.83;12.17;;;10.90;94.60;;;10.84;83.17;97645.31;5121236;28;20525;-83
2022/10/21 03:59:02;;;;;;;17.33;12.13;;;10.90;94.60;;;10.76;83.35;97638.31;5131030;27;20944;-82
2022/10/21 04:01:30;;;;;;;19.40;12.93;;;10.90;94.60;;;10.93;82.70;97649.34;5123979;28;20479;-85
2022/10/21 04:03:57;;;;;;;14.63;13.23;;;10.90;94.70;;;10.87;83.63;97639.47;5127116;28;20451;-82
2022/10/21 04:06:24;;;;;;;16.67;12.53;;;11.00;94.90;;;10.81;83.67;97629.53;5119683;28;20506;-82
2022/10/21 04:08:51;;;;;;;14.20;12.70;;;11.00;95.00;;;11.02;83.35;97650.72;5119337;28;20458;-82
2022/10/21 04:11:18;;;;;;;13.63;12.20;;;11.00;94.90;;;11.10;82.98;97638.75;5123903;28;20450;-83
2022/10/21 04:13:49;;;;;;;14.93;13.43;;;11.10;95.00;;;11.15;82.48;97654.31;5127386;28;20506;-82
2022/10/21 04:16:20;;;;;;;14.40;13.00;;;11.10;94.70;;;10.87;82.56;97588.13;5125468;27;20448;-82
2022/10/21 04:18:47;;;;;;;13.97;12.57;;;11.20;94.70;;;10.73;82.98;97558.56;5127743;27;20452;-83
2022/10/21 04:21:15;;;;;;;14.47;12.20;;;11.20;94.70;;;10.85;82.49;97565.91;5125436;27;20996;-83
2022/10/21 04:23:43;;;;;;;14.53;13.00;;;11.20;94.40;;;11.23;82.75;97613.41;5132129;27;20459;-83
2022/10/21 04:26:12;;;;;;;15.43;13.43;;;11.20;94.40;;;11.11;82.61;97596.31;5131528;27;20524;-83
2022/10/21 04:28:39;;;;;;;15.37;12.10;;;11.20;94.70;;;11.38;82.44;97612.16;5124855;27;20461;-83
2022/10/21 04:31:08;;;;;;;15.33;12.70;;;11.20;94.70;;;11.26;82.50;97593.19;5121383;27;20525;-81
2022/10/21 04:33:35;;;;;;;14.47;12.97;;;11.10;95.40;;;11.18;82.01;97575.44;5142501;27;20514;-81
2022/10/21 04:36:03;;;;;;;14.33;12.67;;;11.10;95.40;;;11.26;82.32;97576.97;5130267;27;20506;-83
2022/10/21 04:38:30;;;;;;;15.10;13.50;;;11.10;95.60;;;11.36;82.65;97603.47;5125429;27;20606;-78
2022/10/21 04:40:58;;;;;;;15.17;12.70;;;11.10;95.40;;;11.28;83.26;97591.91;5124417;27;20483;-78
2022/10/21 04:43:26;;;;;;;16.97;13.40;;;11.10;96.30;;;11.30;83.40;97587.13;5127959;27;20448;-79
2022/10/21 04:45:53;;;;;;;14.20;12.40;;;11.10;96.20;;;11.41;83.00;97580.06;5125570;27;20474;-79
2022/10/21 04:48:22;;;;;;;14.80;13.20;;;11.00;96.60;;;11.39;82.47;97579.50;5143442;27;20518;-78
2022/10/21 04:50:52;;;;;;;18.00;14.53;;;11.10;96.20;;;10.96;82.81;97508.34;5126893;27;20954;-77
2022/10/21 04:53:20;;;;;;;16.13;13.23;;;11.10;96.30;;;11.33;83.08;97545.22;5129695;27;20442;-76
2022/10/21 04:55:52;;;;;;;20.50;14.40;;;11.20;96.50;;;11.52;82.46;97561.38;5124286;27;20449;-77
2022/10/21 04:58:19;;;;;;;16.53;13.70;;;11.30;96.50;;;11.65;82.05;97554.94;5144975;27;20480;-77
2022/10/21 05:00:47;;;;;;;14.60;13.20;;;11.30;95.70;;;11.64;82.01;97556.00;5126950;27;20546;-78
2022/10/21 05:03:14;;;;;;;21.23;13.07;;;11.40;95.80;;;11.59;82.33;97554.81;5128242;27;20453;-76
2022/10/21 05:05:43;;;;;;;15.90;13.03;;;11.50;95.10;;;11.77;81.78;97547.66;5129745;27;20471;-76
2022/10/21 05:08:11;;;;;;;15.80;12.60;;;11.60;94.80;;;11.88;81.02;97556.84;5124907;27;20447;-77
2022/10/21 05:10:38;;;;;;;14.57;12.47;;;11.60;94.40;;;11.99;81.00;97560.59;5117241;27;20462;-77
2022/10/21 05:13:05;;;;;;;12.73;11.43;;;11.70;94.40;;;11.92;81.32;97559.91;5123169;27;21141;-77
2022/10/21 05:15:33;;;;;;;18.40;13.33;;;11.60;94.30;;;11.98;80.69;97567.91;5122737;27;20463;-75
2022/10/21 05:18:01;;;;;;;13.27;12.07;;;11.70;94.20;;;11.85;81.47;97563.53;5118664;27;20440;-75
2022/10/21 05:20:29;;;;;;;15.87;12.60;;;11.60;94.20;;;11.83;81.39;97554.84;5118523;27;20455;-75
2022/10/21 05:22:57;;;;;;;14.30;11.77;;;11.60;94.50;;;11.72;81.71;97542.94;5119992;27;20470;-74
2022/10/21 05:25:25;;;;;;;14.63;13.30;;;11.50;94.80;;;11.74;81.58;97557.06;5123380;27;20459;-76
2022/10/21 05:27:52;;;;;;;14.20;12.70;;;11.50;95.10;;;11.75;82.03;97564.13;5115447;27;20616;-74
2022/10/21 05:30:19;;;;;;;14.60;12.10;;;11.50;95.50;;;11.71;81.76;97554.00;5112090;27;20446;-74
2022/10/21 05:32:46;;;;;;;16.67;12.80;;;11.50;94.80;;;11.81;82.47;97540.72;5120292;27;20548;-77
2022/10/21 05:35:13;;;;;;;15.73;13.10;;;11.50;95.90;;;11.92;81.56;97559.91;5141541;27;20875;-85
2022/10/21 05:37:41;;;;;;;16.50;13.00;;;11.50;95.20;;;11.88;81.46;97563.06;5125879;27;20515;-76
2022/10/21 05:40:11;;;;;;;14.30;11.90;;;11.50;95.90;;;11.95;81.60;97557.53;5118679;27;20456;-75
2022/10/21 05:42:38;;;;;;;15.67;11.23;;;11.60;95.90;;;11.82;81.01;97530.69;5122665;27;20507;-76
2022/10/21 05:45:07;;;;;;;14.77;13.17;;;11.60;95.10;;;11.81;81.24;97535.31;5120688;27;20484;-74
2022/10/21 05:47:34;;;;;;;16.90;13.93;;;11.60;94.70;;;11.95;81.44;97543.19;5131848;27;20461;-74
2022/10/21 05:50:01;;;;;;;13.10;11.90;;;11.60;94.60;;;11.90;81.56;97552.84;5147079;27;20461;-75
2022/10/21 05:52:29;;;;;;;15.80;12.93;;;11.60;94.70;;;12.08;81.46;97556.53;5125301;27;20463;-74
2022/10/21 05:54:56;;;;;;;16.47;12.37;;;11.70;95.20;;;12.29;81.01;97552.38;5123202;27;20959;-73
2022/10/21 05:57:24;;;;;;;14.77;12.30;;;11.90;95.20;;;12.14;80.66;97547.44;5119529;27;20452;-73
2022/10/21 05:59:52;;;;;;;17.30;12.30;;;12.00;94.10;;;12.07;80.43;97506.13;5112837;27;20468;-72
2022/10/21 06:02:19;;;;;;;14.03;12.23;;;12.10;94.20;;;12.30;80.24;97564.03;5120613;27;20531;-70
2022/10/21 06:04:46;;;;;;;15.40;12.30;;;12.10;93.60;;;12.49;80.63;97566.56;5115143;27;20461;-71
2022/10/21 06:07:13;;;;;;;15.83;12.40;;;12.10;94.50;;;12.17;81.35;97573.22;5138640;27;20500;-73
2022/10/21 06:09:40;;;;;;;13.63;12.23;;;12.10;93.60;;;12.30;81.14;97566.72;5119394;27;20472;-72
2022/10/21 06:12:08;;;;;;;14.90;13.10;;;12.10;93.80;;;12.43;80.45;97571.91;5122667;27;20524;-69
2022/10/21 06:14:36;;;;;;;17.87;13.97;;;12.20;93.70;;;12.51;80.58;97580.69;5134456;27;20461;-71
2022/10/21 06:17:03;;;;;;;14.53;12.90;;;12.20;93.80;;;12.61;80.03;97591.75;5109630;27;20588;-73
2022/10/21 06:19:31;;;;;;;14.87;13.37;;;12.30;93.40;;;12.48;80.41;97582.03;5117338;27;20456;-72
2022/10/21 06:21:58;;;;;;;19.00;12.13;;;12.40;93.20;;;12.46;80.28;97595.78;5112664;27;20501;-72
2022/10/21 06:24:26;;;;;;;13.43;12.00;;;12.30;93.10;;;12.42;80.98;97589.22;5105668;27;20583;-72
2022/10/21 06:26:53;;;;;;;15.77;13.07;;;12.30;93.20;;;12.50;80.84;97584.47;5106635;27;20499;-74
2022/10/21 06:29:21;;;;;;;18.03;12.53;;;12.40;93.50;;;12.43;81.17;97580.03;5108704;27;20468;-72
2022/10/21 06:31:49;;;;;;;14.90;13.40;;;12.30;93.40;;;12.05;80.90;97513.66;5116490;27;20456;-73
2022/10/21 06:34:16;;;;;;;15.50;12.60;;;12.40;93.60;;;12.70;80.60;97584.09;5106882;27;20985;-73
2022/10/21 06:36:43;;;;;;;13.90;12.60;;;12.50;93.60;;;12.77;79.72;97600.22;5122607;27;21043;-73
2022/10/21 06:39:11;;;;;;;22.43;13.27;;;12.60;93.00;;;12.66;80.09;97594.59;5116749;27;20465;-73
2022/10/21 06:41:38;;;;;;;17.97;12.93;;;12.50;92.90;;;12.70;80.13;97611.19;5111132;27;20473;-75
2022/10/21 06:44:05;;;;;;;14.70;13.10;;;12.60;92.90;;;12.73;80.23;97599.84;5106041;27;21272;-73
2022/10/21 06:46:32;;;;;;;18.23;12.50;;;12.60;93.10;;;12.77;79.94;97606.47;5105360;27;20461;-73
2022/10/21 06:49:01;;;;;;;14.03;12.63;;;12.70;92.80;;;12.95;79.81;97621.72;5109663;27;20971;-74
2022/10/21 06:51:29;;;;;;;13.27;11.90;;;12.80;92.90;;;13.12;80.46;97610.94;5115694;27;20537;-73
2022/10/21 06:53:59;;;;;;;14.03;12.53;;;12.80;93.60;;;12.95;80.52;97610.88;5117801;27;20478;-74
2022/10/21 06:56:27;;;;;;;15.00;13.37;;;12.80;93.40;;;12.82;81.46;97605.75;5112335;27;20457;-72
2022/10/21 06:58:58;;;;;;;15.50;13.47;;;12.80;93.90;;;12.98;81.48;97602.28;5131111;27;20469;-72
2022/10/21 07:01:27;;;;;;;16.40;12.83;;;12.80;94.20;;;12.84;82.42;97601.72;5112172;27;21019;-73
2022/10/21 07:03:54;;;;;;;14.20;12.70;;;12.70;94.80;;;12.91;82.74;97600.78;5114713;27;21257;-71
2022/10/21 07:06:23;;;;;;;14.70;13.10;;;12.80;95.80;;;13.09;82.95;97594.31;5115607;27;21105;-72
2022/10/21 07:08:50;;;;;;;18.77;14.07;;;12.80;96.40;;;13.31;81.94;97605.31;5119310;27;20523;-72
2022/10/21 07:11:18;;;;;;;21.03;13.70;;;13.00;96.00;;;13.26;81.90;97595.19;5120973;27;20465;-72
2022/10/21 07:13:45;;;;;;;18.07;13.77;;;13.00;95.60;;;13.16;82.80;97603.16;5117186;27;20836;-73
2022/10/21 07:16:19;;;;;;;17.30;13.70;;;13.00;95.40;;;13.16;82.88;97605.88;5118907;27;20485;-72
2022/10/21 07:18:46;;;;;;;15.37;13.53;;;13.00;95.90;;;13.19;83.02;97613.50;5115220;27;20465;-73
2022/10/21 07:21:17;;;;;;;18.13;13.20;;;13.00;95.80;;;13.22;82.88;97618.44;5112666;27;21897;-73
2022/10/21 07:23:47;;;;;;;14.37;12.97;;;13.10;95.60;;;13.15;83.40;97623.22;5113698;27;20462;-73
2022/10/21 07:26:15;;;;;;;17.73;13.93;;;13.00;96.00;;;13.13;83.08;97606.34;5113465;27;20553;-72
2022/10/21 07:28:46;;;;;;;14.90;13.50;;;13.10;96.00;;;13.15;83.86;97617.78;5116475;27;21203;-72
2022/10/21 07:31:14;;;;;;;15.93;13.80;;;13.10;96.50;;;13.19;83.98;97624.34;5103022;27;20457;-73
2022/10/21 07:33:42;;;;;;;15.53;14.00;;;13.10;96.80;;;13.37;83.57;97619.78;5118076;27;20449;-74
2022/10/21 07:36:14;;;;;;;15.97;13.73;;;13.10;97.40;;;13.38;83.94;97613.31;5116459;27;20561;-73
2022/10/21 07:38:45;;;;;;;15.77;13.97;;;13.20;97.40;;;13.36;84.17;97629.00;5112831;27;20488;-74
2022/10/21 07:41:17;;;;;;;16.03;14.40;;;13.20;97.20;;;13.15;85.28;97601.50;5105472;27;20537;-73
2022/10/21 07:43:44;;;;;;;16.73;13.47;;;13.10;98.40;;;13.22;85.38;97613.03;5116700;27;20469;-73
2022/10/21 07:46:11;;;;;;;16.50;13.37;;;13.10;98.70;;;13.27;85.54;97615.00;5111786;27;20462;-72
2022/10/21 07:48:38;;;;;;;19.50;15.20;;;13.10;99.30;;;13.28;85.73;97606.63;5114476;27;20527;-73
2022/10/21 07:51:09;;;;;;;14.77;13.50;;;13.10;99.10;;;13.25;85.85;97609.00;5111734;27;20547;-74
2022/10/21 07:53:37;;;;;;;17.50;14.73;;;13.10;99.10;;;13.13;86.65;97600.94;5117534;28;20493;-75
2022/10/21 07:56:08;;;;;;;17.40;15.60;;;13.10;99.90;;;13.42;85.95;97592.75;5116366;28;20461;-71
2022/10/21 07:58:36;;;;;;;15.53;13.97;;;13.20;99.90;;;13.67;85.31;97597.00;5118500;28;20456;-73
2022/10/21 08:01:06;;;;;;;17.40;14.30;;;13.30;99.90;;;13.47;85.38;97576.59;5130574;27;21007;-73
2022/10/21 08:03:33;;;;;;;17.60;15.80;;;13.40;98.50;;;13.88;84.20;97592.75;5113385;28;20552;-73
2022/10/21 08:06:02;;;;;;;19.50;14.30;;;13.50;98.20;;;14.00;82.95;97593.47;5112349;28;20474;-73
2022/10/21 08:08:29;;;;;;;15.43;13.83;;;13.60;97.30;;;14.13;82.50;97605.06;5119617;27;20457;-72
2022/10/21 08:10:57;;;;;;;17.80;14.83;;;13.70;96.80;;;13.81;83.58;97611.09;5121195;27;20483;-75
2022/10/21 08:13:24;;;;;;;21.93;15.30;;;13.60;96.30;;;14.24;82.91;97622.34;5125947;28;20460;-72
2022/10/21 08:15:55;;;;;;;17.33;15.00;;;13.80;97.90;;;13.97;83.13;97585.00;5122213;28;20476;-71
2022/10/21 08:18:24;;;;;;;18.97;15.13;;;13.80;97.00;;;13.96;83.69;97621.38;5126317;28;20486;-74
2022/10/21 08:20:52;;;;;;;15.57;13.97;;;13.90;96.50;;;13.96;84.96;97626.81;5118919;27;20457;-72
2022/10/21 08:23:22;;;;;;;16.10;14.60;;;13.70;98.80;;;14.37;83.22;97622.00;5119857;28;20480;-71
2022/10/21 08:25:51;;;;;;;19.87;15.03;;;13.90;98.70;;;14.32;83.34;97621.91;5117038;28;20488;-71
2022/10/21 08:28:20;;;;;;;16.60;14.90;;;14.00;97.60;;;14.67;82.57;97626.22;5126589;28;20938;-72
2022/10/21 08:30:47;;;;;;;14.80;13.40;;;14.20;97.10;;;14.85;80.72;97644.13;5119296;27;20545;-72
2022/10/21 08:33:16;;;;;;;16.53;14.80;;;14.40;95.40;;;14.80;81.57;97643.28;5129284;27;20457;-71
2022/10/21 08:35:43;;;;;;;15.67;13.70;;;14.40;95.50;;;14.71;81.23;97643.69;5112302;28;20544;-73
2022/10/21 08:38:12;;;;;;;18.07;14.50;;;14.50;94.90;;;14.71;81.42;97632.81;5115808;28;20454;-72
2022/10/21 08:40:44;;;;;;;15.93;14.20;;;14.50;95.00;;;14.87;81.46;97630.28;5116066;27;20569;-71
2022/10/21 08:43:21;;;;;;;15.80;14.13;;;14.40;95.80;;;14.71;81.66;97626.53;5116763;27;20476;-72
2022/10/21 08:45:53;;;;;;;18.70;15.30;;;14.50;95.40;;;14.53;82.79;97625.75;5111159;27;20456;-74
2022/10/21 08:48:26;;;;;;;16.93;15.20;;;14.30;96.30;;;14.81;81.77;97625.88;5114923;27;20473;-72
2022/10/21 08:50:55;;;;;;;16.83;15.13;;;14.40;96.20;;;14.43;83.15;97621.00;5133527;27;20476;-71
2022/10/21 08:53:29;;;;;;;17.20;15.23;;;14.30;96.30;;;14.09;84.30;97618.31;5130196;27;20461;-76
2022/10/21 08:56:04;;;;;;;22.90;16.90;;;14.10;96.10;;;14.17;84.50;97609.75;5126856;27;20465;-72
2022/10/21 08:58:31;;;;;;;19.43;16.10;;;14.00;97.50;;;14.38;84.53;97606.50;5139390;27;20485;-72
2022/10/21 09:01:05;;;;;;;17.43;15.63;;;14.10;97.80;;;14.19;84.57;97603.25;5112665;27;20659;-72
2022/10/21 09:03:42;;;;;;;17.97;16.17;;;14.10;97.50;;;14.20;85.71;97604.91;5114739;27;20522;-72
2022/10/21 09:06:23;;;;;;;18.73;16.53;;;14.10;98.70;;;14.22;86.46;97594.59;5120198;27;20544;-73
2022/10/21 09:09:00;;;;;;;21.07;18.27;;;14.10;99.90;;;14.22;87.10;97589.19;5117580;27;20461;-72
2022/10/21 09:11:44;;;;;;;19.30;17.30;;;14.00;99.90;;;14.33;86.06;97585.53;5110201;27;20449;-71
2022/10/21 09:14:47;;;;;;;22.00;17.33;;;14.10;99.90;;;14.22;86.87;97575.59;5122006;27;20522;-71
2022/10/21 09:17:25;;;;;;;19.90;17.73;;;14.10;99.90;;;14.29;86.46;97579.78;5120503;27;20522;-71
2022/10/21 09:20:03;;;;;;;23.97;18.67;;;14.00;99.90;;;14.08;86.52;97565.06;5119468;27;20472;-72
2022/10/21 09:22:49;;;;;;;23.90;16.90;;;14.10;99.90;;;14.41;87.45;97589.72;5127885;27;20542;-72
2022/10/21 09:25:26;;;;;;;21.63;18.67;;;14.10;99.90;;;14.65;84.99;97592.19;5121587;27;20817;-72
2022/10/21 09:27:57;;;;;;;20.33;18.20;;;14.20;99.90;;;14.30;86.70;97588.72;5122607;27;20448;-73
2022/10/21 09:30:25;;;;;;;22.00;16.77;;;14.20;99.90;;;14.53;86.06;97589.59;5120712;27;22337;-71
2022/10/21 09:32:57;;;;;;;19.80;17.70;;;14.20;99.90;;;14.47;86.00;97590.59;5121184;27;20473;-72
2022/10/21 09:35:34;;;;;;;19.67;17.63;;;14.20;99.90;;;14.52;86.26;97590.66;5115949;27;20522;-72
2022/10/21 09:38:10;;;;;;;20.00;16.53;;;14.30;99.90;;;14.69;85.95;97602.31;5122334;27;20455;-71
2022/10/21 09:40:38;;;;;;;23.73;17.47;;;14.30;99.90;;;14.68;85.31;97589.78;5119673;27;20465;-73
2022/10/21 09:43:15;;;;;;;17.13;15.33;;;14.40;99.90;;;14.71;85.38;97578.44;5120926;27;21006;-72
2022/10/21 09:45:45;;;;;;;26.50;17.30;;;14.40;99.90;;;14.42;86.72;97581.28;5116360;27;21043;-73
2022/10/21 09:48:26;;;;;;;22.03;17.47;;;14.30;99.90;;;14.71;86.65;97605.63;5127513;27;21183;-73
2022/10/21 09:51:00;;;;;;;18.63;16.10;;;14.40;99.90;;;14.74;86.57;97612.47;5114724;27;20958;-72
2022/10/21 09:53:33;;;;;;;20.77;16.87;;;14.40;99.90;;;14.61;87.66;97626.41;5122296;27;21188;-73
2022/10/21 09:56:04;;;;;;;19.50;16.47;;;14.40;99.90;;;14.71;87.26;97635.53;5118546;27;21048;-72
2022/10/21 09:58:50;;;;;;;19.10;17.20;;;14.40;99.90;;;14.57;87.69;97655.97;5116308;27;21328;-72
2022/10/21 10:01:20;;;;;;;23.30;17.77;;;14.40;99.90;;;14.52;88.00;97650.47;5116573;27;20531;-72
2022/10/21 10:03:50;;;;;;;20.83;18.70;;;14.40;99.90;;;14.63;88.35;97657.66;5117305;27;20511;-73
2022/10/21 10:06:36;;;;;;;21.10;17.07;;;14.40;99.90;;;14.81;86.98;97669.38;5119970;27;20471;-71
2022/10/21 10:09:16;;;;;;;19.27;17.37;;;14.50;99.90;;;15.04;85.70;97675.66;5118165;27;20481;-73
2022/10/21 10:11:53;;;;;;;23.37;16.63;;;14.70;99.90;;;15.13;85.13;97665.97;5121678;27;20944;-71
2022/10/21 10:14:28;;;;;;;19.90;17.23;;;14.80;99.00;;;14.94;85.01;97635.53;5130435;27;21150;-72
2022/10/21 10:16:57;;;;;;;22.70;16.40;;;14.90;97.80;;;14.93;84.27;97634.72;5134355;27;20457;-71
2022/10/21 10:19:27;;;;;;;18.13;15.73;;;14.90;96.80;;;15.02;85.20;97626.94;5116043;27;20461;-71
2022/10/21 10:22:13;;;;;;;18.63;15.57;;;14.80;98.40;;;14.83;85.54;97612.84;5118191;27;20542;-71